sensor_id;sensor_type;location;lat;lon;timestamp;P1;durP1;ratioP1;P2;durP2;ratioP2
22904;SDS011;11619;50.140;8.518;2022-12-29T00:00:11;5.05;;;3.10;;
22904;SDS011;11619;50.140;8.518;2022-12-29T00:02:40;5.57;;;2.90;;
22904;SDS011;11619;50.140;8.518;2022-12-29T00:05:07;6.28;;;3.10;;
22904;SDS011;11619;50.140;8.518;2022-12-29T00:07:34;3.70;;;2.88;;
22904;SDS011;11619;50.140;8.518;2022-12-29T00:10:00;6.32;;;2.83;;
22904;SDS011;11619;50.140;8.518;2022-12-29T00:12:27;4.10;;;2.55;;
22904;SDS011;11619;50.140;8.518;2022-12-29T00:15:13;3.75;;;2.42;;
22904;SDS011;11619;50.140;8.518;2022-12-29T00:17:59;3.50;;;2.33;;
22904;SDS011;11619;50.140;8.518;2022-12-29T00:20:25;4.70;;;2.67;;
22904;SDS011;11619;50.140;8.518;2022-12-29T00:23:10;6.68;;;2.40;;
22904;SDS011;11619;50.140;8.518;2022-12-29T00:26:02;6.35;;;2.35;;
22904;SDS011;11619;50.140;8.518;2022-12-29T00:28:52;5.25;;;2.40;;
22904;SDS011;11619;50.140;8.518;2022-12-29T00:31:39;4.35;;;2.50;;
22904;SDS011;11619;50.140;8.518;2022-12-29T00:34:24;3.10;;;2.70;;
22904;SDS011;11619;50.140;8.518;2022-12-29T00:37:09;3.55;;;2.63;;
22904;SDS011;11619;50.140;8.518;2022-12-29T00:39:36;3.88;;;2.92;;
22904;SDS011;11619;50.140;8.518;2022-12-29T00:42:20;2.92;;;2.28;;
22904;SDS011;11619;50.140;8.518;2022-12-29T00:45:06;4.03;;;2.45;;
22904;SDS011;11619;50.140;8.518;2022-12-29T00:47:32;3.65;;;2.47;;
22904;SDS011;11619;50.140;8.518;2022-12-29T00:49:59;4.32;;;2.53;;
22904;SDS011;11619;50.140;8.518;2022-12-29T00:52:25;3.67;;;2.55;;
22904;SDS011;11619;50.140;8.518;2022-12-29T00:54:52;3.22;;;2.47;;
22904;SDS011;11619;50.140;8.518;2022-12-29T00:57:18;2.92;;;2.33;;
22904;SDS011;11619;50.140;8.518;2022-12-29T00:59:44;3.35;;;2.13;;
22904;SDS011;11619;50.140;8.518;2022-12-29T01:02:11;2.78;;;2.22;;
22904;SDS011;11619;50.140;8.518;2022-12-29T01:04:38;2.80;;;2.38;;
22904;SDS011;11619;50.140;8.518;2022-12-29T01:07:04;3.58;;;2.47;;
22904;SDS011;11619;50.140;8.518;2022-12-29T01:09:31;5.93;;;2.65;;
22904;SDS011;11619;50.140;8.518;2022-12-29T01:12:19;3.25;;;2.60;;
22904;SDS011;11619;50.140;8.518;2022-12-29T01:15:09;2.65;;;2.00;;
22904;SDS011;11619;50.140;8.518;2022-12-29T01:17:39;2.40;;;2.20;;
22904;SDS011;11619;50.140;8.518;2022-12-29T01:20:08;4.03;;;2.15;;
22904;SDS011;11619;50.140;8.518;2022-12-29T01:22:59;3.15;;;2.15;;
22904;SDS011;11619;50.140;8.518;2022-12-29T01:25:32;2.97;;;2.28;;
22904;SDS011;11619;50.140;8.518;2022-12-29T01:28:01;7.97;;;2.72;;
22904;SDS011;11619;50.140;8.518;2022-12-29T01:30:28;4.10;;;2.55;;
22904;SDS011;11619;50.140;8.518;2022-12-29T01:32:54;3.40;;;2.22;;
22904;SDS011;11619;50.140;8.518;2022-12-29T01:35:21;2.55;;;2.00;;
22904;SDS011;11619;50.140;8.518;2022-12-29T01:37:47;2.65;;;2.15;;
22904;SDS011;11619;50.140;8.518;2022-12-29T01:40:14;2.45;;;2.25;;
22904;SDS011;11619;50.140;8.518;2022-12-29T01:42:43;2.42;;;2.10;;
22904;SDS011;11619;50.140;8.518;2022-12-29T01:45:10;2.33;;;2.13;;
22904;SDS011;11619;50.140;8.518;2022-12-29T01:50:39;4.50;;;2.22;;
22904;SDS011;11619;50.140;8.518;2022-12-29T01:53:11;4.03;;;2.40;;
22904;SDS011;11619;50.140;8.518;2022-12-29T01:55:42;5.00;;;2.38;;
22904;SDS011;11619;50.140;8.518;2022-12-29T01:58:12;2.70;;;2.00;;
22904;SDS011;11619;50.140;8.518;2022-12-29T02:00:40;3.70;;;1.88;;
22904;SDS011;11619;50.140;8.518;2022-12-29T02:03:07;4.95;;;2.55;;
22904;SDS011;11619;50.140;8.518;2022-12-29T02:05:38;3.78;;;2.17;;
22904;SDS011;11619;50.140;8.518;2022-12-29T02:08:08;3.33;;;1.98;;
22904;SDS011;11619;50.140;8.518;2022-12-29T02:10:35;3.47;;;2.20;;
22904;SDS011;11619;50.140;8.518;2022-12-29T02:13:02;2.22;;;1.83;;
22904;SDS011;11619;50.140;8.518;2022-12-29T02:24:15;4.20;;;2.05;;
22904;SDS011;11619;50.140;8.518;2022-12-29T02:37:54;1.95;;;1.65;;
22904;SDS011;11619;50.140;8.518;2022-12-29T02:40:29;2.30;;;1.80;;
22904;SDS011;11619;50.140;8.518;2022-12-29T02:46:27;2.45;;;1.70;;
22904;SDS011;11619;50.140;8.518;2022-12-29T02:49:06;2.50;;;1.75;;
22904;SDS011;11619;50.140;8.518;2022-12-29T02:51:54;1.65;;;1.30;;
22904;SDS011;11619;50.140;8.518;2022-12-29T02:54:24;2.15;;;1.70;;
22904;SDS011;11619;50.140;8.518;2022-12-29T02:57:14;1.83;;;1.50;;
22904;SDS011;11619;50.140;8.518;2022-12-29T02:59:50;3.95;;;1.50;;
22904;SDS011;11619;50.140;8.518;2022-12-29T03:08:04;2.42;;;1.90;;
22904;SDS011;11619;50.140;8.518;2022-12-29T03:21:42;2.00;;;1.40;;
22904;SDS011;11619;50.140;8.518;2022-12-29T03:24:29;2.00;;;1.73;;
22904;SDS011;11619;50.140;8.518;2022-12-29T03:27:00;3.45;;;1.40;;
22904;SDS011;11619;50.140;8.518;2022-12-29T03:29:29;2.33;;;1.30;;
22904;SDS011;11619;50.140;8.518;2022-12-29T03:31:57;2.10;;;1.30;;
22904;SDS011;11619;50.140;8.518;2022-12-29T03:34:24;3.72;;;1.50;;
22904;SDS011;11619;50.140;8.518;2022-12-29T03:36:55;4.60;;;1.52;;
22904;SDS011;11619;50.140;8.518;2022-12-29T03:41:55;1.92;;;1.40;;
22904;SDS011;11619;50.140;8.518;2022-12-29T03:44:31;1.73;;;1.63;;
22904;SDS011;11619;50.140;8.518;2022-12-29T03:46:59;2.30;;;1.40;;
22904;SDS011;11619;50.140;8.518;2022-12-29T03:49:25;3.70;;;1.65;;
22904;SDS011;11619;50.140;8.518;2022-12-29T03:51:51;3.38;;;1.65;;
22904;SDS011;11619;50.140;8.518;2022-12-29T03:54:18;5.30;;;1.80;;
22904;SDS011;11619;50.140;8.518;2022-12-29T03:56:44;3.75;;;1.67;;
22904;SDS011;11619;50.140;8.518;2022-12-29T03:59:11;2.47;;;1.80;;
22904;SDS011;11619;50.140;8.518;2022-12-29T04:01:37;2.95;;;1.67;;
22904;SDS011;11619;50.140;8.518;2022-12-29T04:04:04;4.15;;;1.70;;
22904;SDS011;11619;50.140;8.518;2022-12-29T04:06:30;3.47;;;1.70;;
22904;SDS011;11619;50.140;8.518;2022-12-29T04:08:57;5.20;;;1.70;;
22904;SDS011;11619;50.140;8.518;2022-12-29T04:11:24;3.97;;;1.92;;
22904;SDS011;11619;50.140;8.518;2022-12-29T04:13:58;2.58;;;1.73;;
22904;SDS011;11619;50.140;8.518;2022-12-29T04:16:24;4.95;;;1.75;;
22904;SDS011;11619;50.140;8.518;2022-12-29T04:18:51;2.85;;;1.77;;
22904;SDS011;11619;50.140;8.518;2022-12-29T04:21:17;5.68;;;2.05;;
22904;SDS011;11619;50.140;8.518;2022-12-29T04:23:44;2.60;;;1.42;;
22904;SDS011;11619;50.140;8.518;2022-12-29T04:26:10;2.58;;;1.60;;
22904;SDS011;11619;50.140;8.518;2022-12-29T04:28:36;3.33;;;2.30;;
22904;SDS011;11619;50.140;8.518;2022-12-29T04:31:04;4.00;;;2.17;;
22904;SDS011;11619;50.140;8.518;2022-12-29T04:33:31;4.22;;;1.98;;
22904;SDS011;11619;50.140;8.518;2022-12-29T04:35:57;2.85;;;1.77;;
22904;SDS011;11619;50.140;8.518;2022-12-29T04:38:24;2.85;;;1.80;;
22904;SDS011;11619;50.140;8.518;2022-12-29T04:40:50;3.72;;;1.67;;
22904;SDS011;11619;50.140;8.518;2022-12-29T04:43:17;3.17;;;1.98;;
22904;SDS011;11619;50.140;8.518;2022-12-29T04:45:48;3.28;;;1.80;;
22904;SDS011;11619;50.140;8.518;2022-12-29T04:48:14;2.65;;;1.90;;
22904;SDS011;11619;50.140;8.518;2022-12-29T04:50:41;5.32;;;2.55;;
22904;SDS011;11619;50.140;8.518;2022-12-29T04:53:08;4.18;;;2.25;;
22904;SDS011;11619;50.140;8.518;2022-12-29T04:55:34;3.97;;;1.98;;
22904;SDS011;11619;50.140;8.518;2022-12-29T04:58:01;3.17;;;1.80;;
22904;SDS011;11619;50.140;8.518;2022-12-29T05:00:27;3.33;;;2.00;;
22904;SDS011;11619;50.140;8.518;2022-12-29T05:02:54;2.70;;;1.85;;
22904;SDS011;11619;50.140;8.518;2022-12-29T05:05:20;1.95;;;1.85;;
22904;SDS011;11619;50.140;8.518;2022-12-29T05:07:47;3.85;;;1.73;;
22904;SDS011;11619;50.140;8.518;2022-12-29T05:10:13;3.65;;;1.65;;
22904;SDS011;11619;50.140;8.518;2022-12-29T05:12:40;3.35;;;1.83;;
22904;SDS011;11619;50.140;8.518;2022-12-29T05:15:07;2.50;;;1.77;;
22904;SDS011;11619;50.140;8.518;2022-12-29T05:17:34;2.75;;;1.90;;
22904;SDS011;11619;50.140;8.518;2022-12-29T05:20:00;2.20;;;1.75;;
22904;SDS011;11619;50.140;8.518;2022-12-29T05:22:27;4.53;;;1.90;;
22904;SDS011;11619;50.140;8.518;2022-12-29T05:24:53;2.05;;;1.73;;
22904;SDS011;11619;50.140;8.518;2022-12-29T05:27:20;2.55;;;1.60;;
22904;SDS011;11619;50.140;8.518;2022-12-29T05:29:46;4.13;;;1.88;;
22904;SDS011;11619;50.140;8.518;2022-12-29T05:32:13;5.28;;;2.08;;
22904;SDS011;11619;50.140;8.518;2022-12-29T05:34:39;2.88;;;1.90;;
22904;SDS011;11619;50.140;8.518;2022-12-29T05:37:06;4.53;;;2.45;;
22904;SDS011;11619;50.140;8.518;2022-12-29T05:39:32;3.38;;;1.80;;
22904;SDS011;11619;50.140;8.518;2022-12-29T05:41:59;4.10;;;1.98;;
22904;SDS011;11619;50.140;8.518;2022-12-29T05:44:25;4.35;;;1.98;;
22904;SDS011;11619;50.140;8.518;2022-12-29T05:46:52;3.28;;;2.00;;
22904;SDS011;11619;50.140;8.518;2022-12-29T05:49:18;4.03;;;1.88;;
22904;SDS011;11619;50.140;8.518;2022-12-29T05:51:45;2.08;;;1.88;;
22904;SDS011;11619;50.140;8.518;2022-12-29T05:54:11;5.47;;;1.98;;
22904;SDS011;11619;50.140;8.518;2022-12-29T05:56:38;2.88;;;1.90;;
22904;SDS011;11619;50.140;8.518;2022-12-29T05:59:04;2.95;;;1.98;;
22904;SDS011;11619;50.140;8.518;2022-12-29T06:01:31;2.72;;;1.77;;
22904;SDS011;11619;50.140;8.518;2022-12-29T06:03:58;1.70;;;1.60;;
22904;SDS011;11619;50.140;8.518;2022-12-29T06:06:24;3.13;;;1.77;;
22904;SDS011;11619;50.140;8.518;2022-12-29T06:08:51;4.07;;;1.90;;
22904;SDS011;11619;50.140;8.518;2022-12-29T06:11:17;2.00;;;1.80;;
22904;SDS011;11619;50.140;8.518;2022-12-29T06:13:44;4.40;;;2.13;;
22904;SDS011;11619;50.140;8.518;2022-12-29T06:16:10;3.08;;;1.90;;
22904;SDS011;11619;50.140;8.518;2022-12-29T06:18:37;3.38;;;1.80;;
22904;SDS011;11619;50.140;8.518;2022-12-29T06:21:04;3.08;;;1.67;;
22904;SDS011;11619;50.140;8.518;2022-12-29T06:23:31;2.78;;;1.75;;
22904;SDS011;11619;50.140;8.518;2022-12-29T06:25:57;3.95;;;1.80;;
22904;SDS011;11619;50.140;8.518;2022-12-29T06:28:23;3.17;;;1.80;;
22904;SDS011;11619;50.140;8.518;2022-12-29T06:30:50;5.78;;;1.92;;
22904;SDS011;11619;50.140;8.518;2022-12-29T06:33:17;2.95;;;1.90;;
22904;SDS011;11619;50.140;8.518;2022-12-29T06:35:43;2.30;;;1.80;;
22904;SDS011;11619;50.140;8.518;2022-12-29T06:38:11;3.00;;;1.70;;
22904;SDS011;11619;50.140;8.518;2022-12-29T06:40:38;3.63;;;2.22;;
22904;SDS011;11619;50.140;8.518;2022-12-29T06:43:05;3.13;;;2.05;;
22904;SDS011;11619;50.140;8.518;2022-12-29T06:45:32;2.13;;;1.75;;
22904;SDS011;11619;50.140;8.518;2022-12-29T06:47:59;3.50;;;1.73;;
22904;SDS011;11619;50.140;8.518;2022-12-29T06:50:25;2.55;;;1.70;;
22904;SDS011;11619;50.140;8.518;2022-12-29T06:52:51;1.50;;;1.40;;
22904;SDS011;11619;50.140;8.518;2022-12-29T06:55:18;3.47;;;2.25;;
22904;SDS011;11619;50.140;8.518;2022-12-29T06:57:44;5.32;;;1.88;;
22904;SDS011;11619;50.140;8.518;2022-12-29T07:00:11;3.58;;;1.92;;
22904;SDS011;11619;50.140;8.518;2022-12-29T07:02:44;4.47;;;2.00;;
22904;SDS011;11619;50.140;8.518;2022-12-29T07:05:11;4.07;;;2.20;;
22904;SDS011;11619;50.140;8.518;2022-12-29T07:07:37;6.30;;;2.17;;
22904;SDS011;11619;50.140;8.518;2022-12-29T07:10:04;2.45;;;1.98;;
22904;SDS011;11619;50.140;8.518;2022-12-29T07:12:30;4.40;;;1.88;;
22904;SDS011;11619;50.140;8.518;2022-12-29T07:14:57;4.60;;;2.30;;
22904;SDS011;11619;50.140;8.518;2022-12-29T07:17:23;3.05;;;1.90;;
22904;SDS011;11619;50.140;8.518;2022-12-29T07:19:49;2.90;;;2.20;;
22904;SDS011;11619;50.140;8.518;2022-12-29T07:22:16;3.30;;;2.45;;
22904;SDS011;11619;50.140;8.518;2022-12-29T07:24:42;4.45;;;2.13;;
22904;SDS011;11619;50.140;8.518;2022-12-29T07:27:09;4.13;;;1.70;;
22904;SDS011;11619;50.140;8.518;2022-12-29T07:29:38;3.88;;;2.03;;
22904;SDS011;11619;50.140;8.518;2022-12-29T07:32:04;6.82;;;2.40;;
22904;SDS011;11619;50.140;8.518;2022-12-29T07:34:31;5.60;;;2.33;;
22904;SDS011;11619;50.140;8.518;2022-12-29T07:36:57;4.32;;;2.50;;
22904;SDS011;11619;50.140;8.518;2022-12-29T07:39:24;3.95;;;2.15;;
22904;SDS011;11619;50.140;8.518;2022-12-29T07:41:50;8.85;;;2.67;;
22904;SDS011;11619;50.140;8.518;2022-12-29T07:44:17;4.15;;;2.30;;
22904;SDS011;11619;50.140;8.518;2022-12-29T07:46:43;3.40;;;2.40;;
22904;SDS011;11619;50.140;8.518;2022-12-29T07:49:22;4.88;;;2.63;;
22904;SDS011;11619;50.140;8.518;2022-12-29T07:51:48;4.20;;;2.47;;
22904;SDS011;11619;50.140;8.518;2022-12-29T07:54:15;4.78;;;2.45;;
22904;SDS011;11619;50.140;8.518;2022-12-29T07:56:44;7.53;;;2.92;;
22904;SDS011;11619;50.140;8.518;2022-12-29T07:59:10;4.72;;;2.60;;
22904;SDS011;11619;50.140;8.518;2022-12-29T08:01:38;5.75;;;3.00;;
22904;SDS011;11619;50.140;8.518;2022-12-29T08:04:05;4.57;;;2.20;;
22904;SDS011;11619;50.140;8.518;2022-12-29T08:06:31;3.75;;;2.58;;
22904;SDS011;11619;50.140;8.518;2022-12-29T08:08:58;4.72;;;2.30;;
22904;SDS011;11619;50.140;8.518;2022-12-29T08:11:36;6.07;;;2.58;;
22904;SDS011;11619;50.140;8.518;2022-12-29T08:14:03;2.65;;;2.22;;
22904;SDS011;11619;50.140;8.518;2022-12-29T08:16:29;4.05;;;2.80;;
22904;SDS011;11619;50.140;8.518;2022-12-29T08:18:56;3.58;;;2.30;;
22904;SDS011;11619;50.140;8.518;2022-12-29T08:21:22;4.25;;;2.83;;
22904;SDS011;11619;50.140;8.518;2022-12-29T08:23:49;5.15;;;2.30;;
22904;SDS011;11619;50.140;8.518;2022-12-29T08:26:15;3.60;;;2.40;;
22904;SDS011;11619;50.140;8.518;2022-12-29T08:28:42;8.32;;;2.90;;
22904;SDS011;11619;50.140;8.518;2022-12-29T08:31:08;5.93;;;2.95;;
22904;SDS011;11619;50.140;8.518;2022-12-29T08:33:35;5.47;;;2.63;;
22904;SDS011;11619;50.140;8.518;2022-12-29T08:36:02;3.35;;;2.70;;
22904;SDS011;11619;50.140;8.518;2022-12-29T08:38:29;5.10;;;2.40;;
22904;SDS011;11619;50.140;8.518;2022-12-29T08:40:56;7.00;;;3.65;;
22904;SDS011;11619;50.140;8.518;2022-12-29T08:43:23;7.65;;;3.03;;
22904;SDS011;11619;50.140;8.518;2022-12-29T08:45:50;4.47;;;2.95;;
22904;SDS011;11619;50.140;8.518;2022-12-29T08:48:17;4.72;;;2.83;;
22904;SDS011;11619;50.140;8.518;2022-12-29T08:50:46;4.50;;;2.63;;
22904;SDS011;11619;50.140;8.518;2022-12-29T08:53:12;2.40;;;2.20;;
22904;SDS011;11619;50.140;8.518;2022-12-29T08:55:39;5.07;;;2.88;;
22904;SDS011;11619;50.140;8.518;2022-12-29T08:58:05;4.05;;;3.15;;
22904;SDS011;11619;50.140;8.518;2022-12-29T09:00:32;7.00;;;2.95;;
22904;SDS011;11619;50.140;8.518;2022-12-29T09:02:58;5.75;;;3.05;;
22904;SDS011;11619;50.140;8.518;2022-12-29T09:05:25;3.80;;;3.03;;
22904;SDS011;11619;50.140;8.518;2022-12-29T09:07:51;6.95;;;3.10;;
22904;SDS011;11619;50.140;8.518;2022-12-29T09:10:17;5.95;;;3.30;;
22904;SDS011;11619;50.140;8.518;2022-12-29T09:12:44;5.97;;;3.45;;
22904;SDS011;11619;50.140;8.518;2022-12-29T09:15:10;4.70;;;3.35;;
22904;SDS011;11619;50.140;8.518;2022-12-29T09:17:38;4.38;;;2.95;;
22904;SDS011;11619;50.140;8.518;2022-12-29T09:20:09;5.05;;;3.08;;
22904;SDS011;11619;50.140;8.518;2022-12-29T09:22:39;4.47;;;3.20;;
22904;SDS011;11619;50.140;8.518;2022-12-29T09:25:06;6.50;;;3.40;;
22904;SDS011;11619;50.140;8.518;2022-12-29T09:27:33;5.10;;;3.58;;
22904;SDS011;11619;50.140;8.518;2022-12-29T09:29:59;4.88;;;3.25;;
22904;SDS011;11619;50.140;8.518;2022-12-29T09:32:25;4.05;;;3.63;;
22904;SDS011;11619;50.140;8.518;2022-12-29T09:34:58;5.00;;;4.03;;
22904;SDS011;11619;50.140;8.518;2022-12-29T09:37:25;5.75;;;3.45;;
22904;SDS011;11619;50.140;8.518;2022-12-29T09:39:52;5.35;;;3.60;;
22904;SDS011;11619;50.140;8.518;2022-12-29T09:42:37;6.18;;;4.35;;
22904;SDS011;11619;50.140;8.518;2022-12-29T09:45:09;6.88;;;4.72;;
22904;SDS011;11619;50.140;8.518;2022-12-29T09:47:38;6.53;;;5.80;;
22904;SDS011;11619;50.140;8.518;2022-12-29T09:50:24;4.93;;;3.83;;
22904;SDS011;11619;50.140;8.518;2022-12-29T09:52:55;5.75;;;3.92;;
22904;SDS011;11619;50.140;8.518;2022-12-29T09:55:44;3.90;;;3.20;;
22904;SDS011;11619;50.140;8.518;2022-12-29T09:58:19;4.95;;;4.50;;
22904;SDS011;11619;50.140;8.518;2022-12-29T10:01:01;9.05;;;5.80;;
22904;SDS011;11619;50.140;8.518;2022-12-29T10:03:46;4.68;;;3.63;;
22904;SDS011;11619;50.140;8.518;2022-12-29T10:08:44;6.95;;;4.00;;
22904;SDS011;11619;50.140;8.518;2022-12-29T10:20:04;2.50;;;2.05;;
22904;SDS011;11619;50.140;8.518;2022-12-29T10:22:40;3.17;;;2.88;;
22904;SDS011;11619;50.140;8.518;2022-12-29T10:25:15;2.53;;;2.33;;
22904;SDS011;11619;50.140;8.518;2022-12-29T10:27:44;5.00;;;2.30;;
22904;SDS011;11619;50.140;8.518;2022-12-29T10:30:13;2.10;;;1.60;;
22904;SDS011;11619;50.140;8.518;2022-12-29T10:32:42;7.00;;;1.73;;
22904;SDS011;11619;50.140;8.518;2022-12-29T10:35:13;3.75;;;1.95;;
22904;SDS011;11619;50.140;8.518;2022-12-29T10:37:45;2.63;;;1.65;;
22904;SDS011;11619;50.140;8.518;2022-12-29T10:42:54;2.55;;;1.48;;
22904;SDS011;11619;50.140;8.518;2022-12-29T10:45:23;1.60;;;1.20;;
22904;SDS011;11619;50.140;8.518;2022-12-29T10:47:58;2.53;;;1.10;;
22904;SDS011;11619;50.140;8.518;2022-12-29T10:50:27;1.80;;;1.30;;
22904;SDS011;11619;50.140;8.518;2022-12-29T10:52:56;2.10;;;1.55;;
22904;SDS011;11619;50.140;8.518;2022-12-29T10:55:26;2.97;;;1.27;;
22904;SDS011;11619;50.140;8.518;2022-12-29T10:57:55;1.98;;;1.15;;
22904;SDS011;11619;50.140;8.518;2022-12-29T11:00:23;5.07;;;3.03;;
22904;SDS011;11619;50.140;8.518;2022-12-29T11:06:00;2.22;;;1.45;;
22904;SDS011;11619;50.140;8.518;2022-12-29T11:08:48;2.38;;;1.20;;
22904;SDS011;11619;50.140;8.518;2022-12-29T11:11:26;2.25;;;1.95;;
22904;SDS011;11619;50.140;8.518;2022-12-29T11:16:56;2.10;;;1.48;;
22904;SDS011;11619;50.140;8.518;2022-12-29T11:19:25;3.22;;;1.40;;
22904;SDS011;11619;50.140;8.518;2022-12-29T11:21:52;1.50;;;1.25;;
22904;SDS011;11619;50.140;8.518;2022-12-29T11:24:21;1.92;;;1.23;;
22904;SDS011;11619;50.140;8.518;2022-12-29T11:29:49;2.53;;;1.00;;
22904;SDS011;11619;50.140;8.518;2022-12-29T11:32:23;2.33;;;1.27;;
22904;SDS011;11619;50.140;8.518;2022-12-29T11:34:56;1.58;;;0.95;;
22904;SDS011;11619;50.140;8.518;2022-12-29T11:42:32;3.58;;;1.10;;
22904;SDS011;11619;50.140;8.518;2022-12-29T11:47:45;2.03;;;1.10;;
22904;SDS011;11619;50.140;8.518;2022-12-29T11:50:20;2.72;;;1.45;;
22904;SDS011;11619;50.140;8.518;2022-12-29T11:52:56;3.63;;;1.77;;
22904;SDS011;11619;50.140;8.518;2022-12-29T11:55:24;2.03;;;1.23;;
22904;SDS011;11619;50.140;8.518;2022-12-29T11:57:52;1.83;;;1.05;;
22904;SDS011;11619;50.140;8.518;2022-12-29T12:00:22;2.40;;;1.02;;
22904;SDS011;11619;50.140;8.518;2022-12-29T12:02:59;1.55;;;0.80;;
22904;SDS011;11619;50.140;8.518;2022-12-29T12:07:57;4.88;;;1.42;;
22904;SDS011;11619;50.140;8.518;2022-12-29T12:10:29;3.90;;;1.30;;
22904;SDS011;11619;50.140;8.518;2022-12-29T12:13:02;2.60;;;1.27;;
22904;SDS011;11619;50.140;8.518;2022-12-29T12:16:06;4.30;;;1.35;;
22904;SDS011;11619;50.140;8.518;2022-12-29T12:18:53;2.67;;;1.35;;
22904;SDS011;11619;50.140;8.518;2022-12-29T12:21:25;2.45;;;1.00;;
22904;SDS011;11619;50.140;8.518;2022-12-29T12:29:40;4.40;;;1.40;;
22904;SDS011;11619;50.140;8.518;2022-12-29T12:32:31;1.92;;;1.30;;
22904;SDS011;11619;50.140;8.518;2022-12-29T12:35:16;3.92;;;1.52;;
22904;SDS011;11619;50.140;8.518;2022-12-29T13:00:13;3.72;;;1.65;;
22904;SDS011;11619;50.140;8.518;2022-12-29T13:24:45;3.97;;;1.85;;
22904;SDS011;11619;50.140;8.518;2022-12-29T13:27:17;2.03;;;1.60;;
22904;SDS011;11619;50.140;8.518;2022-12-29T13:32:31;3.92;;;1.67;;
22904;SDS011;11619;50.140;8.518;2022-12-29T13:35:07;2.58;;;1.70;;
22904;SDS011;11619;50.140;8.518;2022-12-29T13:37:45;3.63;;;1.75;;
22904;SDS011;11619;50.140;8.518;2022-12-29T13:40:15;3.58;;;1.67;;
22904;SDS011;11619;50.140;8.518;2022-12-29T13:42:43;2.40;;;1.17;;
22904;SDS011;11619;50.140;8.518;2022-12-29T13:45:13;3.20;;;1.30;;
22904;SDS011;11619;50.140;8.518;2022-12-29T13:50:46;3.10;;;1.50;;
22904;SDS011;11619;50.140;8.518;2022-12-29T13:53:19;5.20;;;2.25;;
22904;SDS011;11619;50.140;8.518;2022-12-29T13:56:12;4.18;;;1.48;;
22904;SDS011;11619;50.140;8.518;2022-12-29T13:58:43;3.33;;;1.38;;
22904;SDS011;11619;50.140;8.518;2022-12-29T14:04:14;6.15;;;2.00;;
22904;SDS011;11619;50.140;8.518;2022-12-29T14:09:29;4.43;;;1.55;;
22904;SDS011;11619;50.140;8.518;2022-12-29T14:17:37;4.32;;;1.73;;
22904;SDS011;11619;50.140;8.518;2022-12-29T14:20:15;3.97;;;1.67;;
22904;SDS011;11619;50.140;8.518;2022-12-29T14:22:56;4.05;;;1.70;;
22904;SDS011;11619;50.140;8.518;2022-12-29T14:28:44;4.63;;;1.95;;
22904;SDS011;11619;50.140;8.518;2022-12-29T14:36:40;4.07;;;1.50;;
22904;SDS011;11619;50.140;8.518;2022-12-29T14:44:54;3.45;;;1.70;;
22904;SDS011;11619;50.140;8.518;2022-12-29T14:50:07;6.15;;;2.22;;
22904;SDS011;11619;50.140;8.518;2022-12-29T14:52:42;4.03;;;2.03;;
22904;SDS011;11619;50.140;8.518;2022-12-29T14:57:49;6.10;;;1.70;;
22904;SDS011;11619;50.140;8.518;2022-12-29T15:00:18;3.03;;;1.60;;
22904;SDS011;11619;50.140;8.518;2022-12-29T15:02:59;3.83;;;1.48;;
22904;SDS011;11619;50.140;8.518;2022-12-29T15:05:40;4.97;;;1.20;;
22904;SDS011;11619;50.140;8.518;2022-12-29T15:08:11;5.57;;;1.60;;
22904;SDS011;11619;50.140;8.518;2022-12-29T15:10:55;4.28;;;1.30;;
22904;SDS011;11619;50.140;8.518;2022-12-29T15:13:25;4.18;;;1.60;;
22904;SDS011;11619;50.140;8.518;2022-12-29T15:15:59;4.45;;;1.52;;
22904;SDS011;11619;50.140;8.518;2022-12-29T15:18:27;5.22;;;1.70;;
22904;SDS011;11619;50.140;8.518;2022-12-29T15:20:57;3.17;;;1.38;;
22904;SDS011;11619;50.140;8.518;2022-12-29T15:23:24;3.95;;;1.27;;
22904;SDS011;11619;50.140;8.518;2022-12-29T15:26:04;4.30;;;1.30;;
22904;SDS011;11619;50.140;8.518;2022-12-29T15:28:41;3.50;;;1.52;;
22904;SDS011;11619;50.140;8.518;2022-12-29T15:34:02;3.55;;;1.90;;
22904;SDS011;11619;50.140;8.518;2022-12-29T15:36:39;4.22;;;1.80;;
22904;SDS011;11619;50.140;8.518;2022-12-29T15:44:49;4.43;;;1.33;;
22904;SDS011;11619;50.140;8.518;2022-12-29T15:47:28;5.22;;;1.90;;
22904;SDS011;11619;50.140;8.518;2022-12-29T15:49:59;5.30;;;1.90;;
22904;SDS011;11619;50.140;8.518;2022-12-29T15:52:29;3.75;;;1.60;;
22904;SDS011;11619;50.140;8.518;2022-12-29T15:54:57;5.68;;;1.65;;
22904;SDS011;11619;50.140;8.518;2022-12-29T15:57:25;2.90;;;1.48;;
22904;SDS011;11619;50.140;8.518;2022-12-29T15:59:52;5.45;;;1.65;;
22904;SDS011;11619;50.140;8.518;2022-12-29T16:02:21;6.38;;;2.22;;
22904;SDS011;11619;50.140;8.518;2022-12-29T16:04:49;6.55;;;2.00;;
22904;SDS011;11619;50.140;8.518;2022-12-29T16:07:36;4.50;;;1.70;;
22904;SDS011;11619;50.140;8.518;2022-12-29T16:10:21;6.97;;;1.73;;
22904;SDS011;11619;50.140;8.518;2022-12-29T16:13:13;4.72;;;1.48;;
22904;SDS011;11619;50.140;8.518;2022-12-29T16:15:46;5.18;;;1.85;;
22904;SDS011;11619;50.140;8.518;2022-12-29T16:18:21;4.68;;;1.58;;
22904;SDS011;11619;50.140;8.518;2022-12-29T16:20:50;5.28;;;1.63;;
22904;SDS011;11619;50.140;8.518;2022-12-29T16:23:21;5.65;;;1.70;;
22904;SDS011;11619;50.140;8.518;2022-12-29T16:25:50;7.43;;;1.83;;
22904;SDS011;11619;50.140;8.518;2022-12-29T16:29:04;4.88;;;1.70;;
22904;SDS011;11619;50.140;8.518;2022-12-29T16:31:47;4.13;;;1.42;;
22904;SDS011;11619;50.140;8.518;2022-12-29T16:37:24;5.53;;;1.73;;
22904;SDS011;11619;50.140;8.518;2022-12-29T16:39:55;3.33;;;1.52;;
22904;SDS011;11619;50.140;8.518;2022-12-29T16:50:39;4.97;;;1.77;;
22904;SDS011;11619;50.140;8.518;2022-12-29T16:53:06;6.90;;;1.92;;
22904;SDS011;11619;50.140;8.518;2022-12-29T16:55:47;3.08;;;1.25;;
22904;SDS011;11619;50.140;8.518;2022-12-29T16:58:16;6.55;;;1.77;;
22904;SDS011;11619;50.140;8.518;2022-12-29T17:00:47;5.68;;;1.92;;
22904;SDS011;11619;50.140;8.518;2022-12-29T17:03:14;4.97;;;1.90;;
22904;SDS011;11619;50.140;8.518;2022-12-29T17:05:41;5.13;;;1.73;;
22904;SDS011;11619;50.140;8.518;2022-12-29T17:08:17;6.72;;;1.40;;
22904;SDS011;11619;50.140;8.518;2022-12-29T17:10:52;5.45;;;1.88;;
22904;SDS011;11619;50.140;8.518;2022-12-29T17:13:39;4.43;;;1.88;;
22904;SDS011;11619;50.140;8.518;2022-12-29T17:16:06;6.15;;;1.52;;
22904;SDS011;11619;50.140;8.518;2022-12-29T17:18:35;5.63;;;1.40;;
22904;SDS011;11619;50.140;8.518;2022-12-29T17:21:02;3.42;;;1.75;;
22904;SDS011;11619;50.140;8.518;2022-12-29T17:23:29;5.25;;;1.95;;
22904;SDS011;11619;50.140;8.518;2022-12-29T17:25:57;6.70;;;1.98;;
22904;SDS011;11619;50.140;8.518;2022-12-29T17:28:29;5.28;;;1.50;;
22904;SDS011;11619;50.140;8.518;2022-12-29T17:31:00;4.55;;;1.88;;
22904;SDS011;11619;50.140;8.518;2022-12-29T17:33:29;3.15;;;1.70;;
22904;SDS011;11619;50.140;8.518;2022-12-29T17:36:01;5.93;;;1.98;;
22904;SDS011;11619;50.140;8.518;2022-12-29T17:38:28;5.45;;;1.77;;
22904;SDS011;11619;50.140;8.518;2022-12-29T17:40:56;8.38;;;2.03;;
22904;SDS011;11619;50.140;8.518;2022-12-29T17:43:23;6.95;;;2.05;;
22904;SDS011;11619;50.140;8.518;2022-12-29T17:45:52;8.55;;;2.13;;
22904;SDS011;11619;50.140;8.518;2022-12-29T17:48:19;5.22;;;2.00;;
22904;SDS011;11619;50.140;8.518;2022-12-29T17:50:46;8.20;;;2.10;;
22904;SDS011;11619;50.140;8.518;2022-12-29T17:53:14;3.72;;;1.63;;
22904;SDS011;11619;50.140;8.518;2022-12-29T17:55:42;6.63;;;1.63;;
22904;SDS011;11619;50.140;8.518;2022-12-29T17:58:18;8.85;;;2.17;;
22904;SDS011;11619;50.140;8.518;2022-12-29T18:00:49;3.83;;;1.55;;
22904;SDS011;11619;50.140;8.518;2022-12-29T18:03:18;6.22;;;1.77;;
22904;SDS011;11619;50.140;8.518;2022-12-29T18:05:48;6.05;;;2.30;;
22904;SDS011;11619;50.140;8.518;2022-12-29T18:08:15;12.50;;;1.98;;
22904;SDS011;11619;50.140;8.518;2022-12-29T18:10:41;8.52;;;1.98;;
22904;SDS011;11619;50.140;8.518;2022-12-29T18:13:11;7.65;;;2.63;;